createdAt,value
2023-04-19T00:00:08.309Z,47.57
2023-04-19T00:02:36.699Z,47.76
2023-04-19T00:05:05.812Z,47.81
2023-04-19T00:07:34.245Z,47.84
2023-04-19T00:10:02.312Z,48.09
2023-04-19T00:12:31.645Z,48.35
2023-04-19T00:14:59.714Z,48.41
2023-04-19T00:17:28.238Z,48.58
2023-04-19T00:19:56.801Z,48.99
2023-04-19T00:22:24.842Z,49.09
2023-04-19T00:24:52.714Z,49.09
2023-04-19T00:27:20.640Z,49.41
2023-04-19T00:29:50.083Z,49.39
2023-04-19T00:32:18.016Z,49.29
2023-04-19T00:34:46.050Z,49.06
2023-04-19T00:37:13.933Z,49.12
2023-04-19T00:39:41.823Z,49.33
2023-04-19T00:42:09.800Z,49.66
2023-04-19T00:44:37.650Z,49.95
2023-04-19T00:47:07.029Z,49.86
2023-04-19T00:49:35.021Z,50.08
2023-04-19T00:52:03.356Z,50.08
2023-04-19T00:54:31.539Z,50.17
2023-04-19T00:56:59.691Z,50.24
2023-04-19T00:59:27.995Z,50.27
2023-04-19T01:01:56.234Z,50.30
2023-04-19T01:04:26.077Z,50.52
2023-04-19T01:06:54.879Z,50.59
2023-04-19T01:09:22.844Z,50.65
2023-04-19T01:11:51.169Z,51.00
2023-04-19T01:14:19.112Z,51.07
2023-04-19T01:16:47.979Z,50.95
2023-04-19T01:19:16.713Z,50.98
2023-04-19T01:21:46.428Z,51.13
2023-04-19T01:24:15.969Z,51.23
2023-04-19T01:26:44.090Z,51.19
2023-04-19T01:29:12.010Z,51.39
2023-04-19T01:31:40.284Z,51.58
2023-04-19T01:34:08.163Z,51.87
2023-04-19T01:36:36.142Z,51.89
2023-04-19T01:39:04.212Z,52.10
2023-04-19T01:41:33.444Z,52.18
2023-04-19T01:44:01.751Z,52.41
2023-04-19T01:46:29.716Z,52.87
2023-04-19T01:48:57.631Z,53.63
2023-04-19T01:51:25.852Z,53.72
2023-04-19T01:53:54.687Z,53.96
2023-04-19T01:56:24.246Z,53.92
2023-04-19T01:58:53.522Z,53.95
2023-04-19T02:01:21.728Z,54.59
2023-04-19T02:03:49.744Z,54.84
2023-04-19T02:06:18.000Z,55.08
2023-04-19T02:08:45.817Z,54.71
2023-04-19T02:11:15.619Z,54.90
2023-04-19T02:13:44.309Z,55.29
2023-04-19T02:16:13.838Z,55.65
2023-04-19T02:18:41.794Z,55.97
2023-04-19T02:21:10.928Z,56.08
2023-04-19T02:23:38.946Z,56.11
2023-04-19T02:26:06.990Z,56.08
2023-04-19T02:28:35.768Z,56.01
2023-04-19T02:31:06.677Z,56.27
2023-04-19T02:33:37.420Z,56.56
2023-04-19T02:36:05.585Z,57.02
2023-04-19T02:38:34.797Z,57.05
2023-04-19T02:41:04.343Z,57.32
2023-04-19T02:43:32.257Z,57.06
2023-04-19T02:46:00.184Z,56.11
2023-04-19T02:48:28.127Z,55.41
2023-04-19T02:50:57.525Z,55.21
2023-04-19T02:53:25.689Z,54.55
2023-04-19T02:55:53.769Z,54.13
2023-04-19T02:58:21.889Z,53.93
2023-04-19T03:01:01.388Z,54.05
2023-04-19T03:03:29.437Z,54.08
2023-04-19T03:05:59.148Z,54.25
2023-04-19T03:08:28.426Z,54.36
2023-04-19T03:10:56.369Z,54.10
2023-04-19T03:13:24.358Z,54.02
2023-04-19T03:15:52.364Z,54.08
2023-04-19T03:18:23.459Z,54.01
2023-04-19T03:20:53.549Z,54.07
2023-04-19T03:23:23.169Z,54.12
2023-04-19T03:25:52.092Z,54.12
2023-04-19T03:28:35.509Z,54.39
2023-04-19T03:31:21.783Z,54.30
2023-04-19T03:33:51.872Z,54.27
2023-04-19T03:36:22.659Z,54.53
2023-04-19T03:38:52.715Z,54.62
2023-04-19T03:41:25.334Z,54.42
2023-04-19T03:44:02.691Z,55.34
2023-04-19T03:46:31.575Z,56.14
2023-04-19T03:49:00.602Z,57.11
2023-04-19T03:51:29.714Z,57.98
2023-04-19T03:53:58.947Z,58.70
2023-04-19T03:56:28.063Z,59.75
2023-04-19T03:58:56.685Z,60.34
2023-04-19T04:01:25.416Z,60.34
2023-04-19T04:03:54.415Z,60.84
2023-04-19T04:06:22.871Z,60.72
2023-04-19T04:08:51.110Z,61.23
2023-04-19T04:11:20.463Z,61.29
2023-04-19T04:13:50.641Z,61.84
2023-04-19T04:16:22.902Z,61.96
2023-04-19T04:18:52.600Z,61.82
2023-04-19T04:21:21.471Z,62.01
2023-04-19T04:23:50.053Z,62.44
2023-04-19T04:26:43.994Z,62.52
2023-04-19T04:29:20.572Z,62.54
2023-04-19T04:31:50.789Z,62.27
2023-04-19T04:34:22.853Z,62.26
2023-04-19T04:36:56.341Z,62.41
2023-04-19T04:39:25.238Z,62.58
2023-04-19T04:41:54.526Z,62.58
2023-04-19T04:44:22.488Z,62.15
2023-04-19T04:46:50.726Z,61.88
2023-04-19T04:49:24.754Z,61.84
2023-04-19T04:51:52.695Z,61.90
2023-04-19T04:54:21.810Z,62.32
2023-04-19T04:56:50.321Z,61.96
2023-04-19T04:59:19.977Z,61.98
2023-04-19T05:01:50.400Z,61.68
2023-04-19T05:04:19.485Z,61.17
2023-04-19T05:06:47.396Z,60.93
2023-04-19T05:09:21.550Z,61.25
2023-04-19T05:11:49.546Z,61.16
2023-04-19T05:14:19.243Z,61.94
2023-04-19T05:16:47.343Z,62.43
2023-04-19T05:19:15.426Z,62.90
2023-04-19T05:21:49.271Z,62.82
2023-04-19T05:24:18.306Z,63.24
2023-04-19T05:26:47.100Z,63.46
2023-04-19T05:29:15.306Z,63.93
2023-04-19T05:31:49.324Z,63.76
2023-04-19T05:34:24.895Z,63.53
2023-04-19T05:36:54.667Z,63.72
2023-04-19T05:39:22.662Z,64.02
2023-04-19T05:41:50.869Z,64.28
2023-04-19T05:44:18.791Z,64.23
2023-04-19T05:46:47.047Z,64.01
2023-04-19T05:49:21.539Z,63.69
2023-04-19T05:52:15.793Z,63.58
2023-04-19T05:54:50.366Z,63.71
2023-04-19T05:57:18.323Z,63.28
2023-04-19T05:59:46.254Z,63.14
2023-04-19T06:02:17.984Z,63.22
2023-04-19T06:04:47.492Z,62.95
2023-04-19T06:07:30.173Z,63.26
2023-04-19T06:10:00.896Z,63.27
2023-04-19T06:12:28.825Z,63.62
2023-04-19T06:14:59.356Z,63.43
2023-04-19T06:17:27.798Z,63.80
2023-04-19T06:19:57.031Z,63.95
2023-04-19T06:22:25.084Z,63.95
2023-04-19T06:24:52.954Z,64.28
2023-04-19T06:27:20.828Z,64.32
2023-04-19T06:29:50.540Z,64.11
2023-04-19T06:32:19.202Z,64.43
2023-04-19T06:34:47.058Z,64.29
2023-04-19T06:37:16.399Z,63.93
2023-04-19T06:39:44.296Z,63.55
2023-04-19T06:42:12.460Z,63.47
2023-04-19T06:44:40.363Z,63.68
2023-04-19T06:47:08.297Z,63.77
2023-04-19T06:49:36.180Z,64.01
2023-04-19T06:52:04.455Z,64.02
2023-04-19T06:54:33.682Z,64.19
2023-04-19T06:57:02.400Z,64.10
2023-04-19T06:59:32.223Z,63.51
2023-04-19T07:02:00.243Z,63.77
2023-04-19T07:04:28.393Z,64.34
2023-04-19T07:06:56.377Z,64.15
2023-04-19T07:09:24.242Z,64.11
2023-04-19T07:11:53.657Z,64.09
2023-04-19T07:14:21.793Z,64.15
2023-04-19T07:16:50.876Z,63.48
2023-04-19T07:19:20.671Z,62.94
2023-04-19T07:21:48.510Z,63.14
2023-04-19T07:24:17.253Z,62.88
2023-04-19T07:26:45.388Z,62.22
2023-04-19T07:29:14.635Z,62.05
2023-04-19T07:31:42.673Z,61.28
2023-04-19T07:34:10.646Z,60.54
2023-04-19T07:36:39.029Z,60.84
2023-04-19T07:39:07.133Z,60.59
2023-04-19T07:41:36.092Z,60.47
2023-04-19T07:44:04.412Z,60.08
2023-04-19T07:46:33.746Z,59.41
2023-04-19T07:49:01.665Z,58.89
2023-04-19T07:51:29.650Z,58.73
2023-04-19T07:53:57.548Z,58.96
2023-04-19T07:56:26.409Z,59.06
2023-04-19T07:59:06.848Z,58.83
2023-04-19T08:01:38.167Z,58.26
2023-04-19T08:04:06.672Z,56.23
2023-04-19T08:06:34.793Z,55.23
2023-04-19T08:09:03.008Z,54.33
2023-04-19T08:11:31.021Z,54.52
2023-04-19T08:14:09.316Z,54.77
2023-04-19T08:17:19.265Z,54.35
2023-04-19T08:19:32.142Z,55.28
2023-04-19T08:21:59.986Z,56.15
2023-04-19T08:24:28.245Z,55.51
2023-04-19T08:26:57.083Z,54.31
2023-04-19T08:29:26.744Z,54.26
2023-04-19T08:31:56.196Z,54.81
2023-04-19T08:34:24.233Z,53.97
2023-04-19T08:37:03.573Z,54.54
2023-04-19T08:39:34.214Z,54.51
2023-04-19T08:42:10.922Z,53.99
2023-04-19T08:47:30.195Z,54.79
2023-04-19T08:50:13.978Z,54.61
2023-04-19T08:52:56.021Z,55.18
2023-04-19T08:55:29.501Z,54.88
2023-04-19T08:57:58.648Z,55.16
2023-04-19T09:00:26.698Z,55.11
2023-04-19T09:02:56.534Z,54.64
2023-04-19T09:05:24.853Z,54.82
2023-04-19T09:07:53.128Z,53.42
2023-04-19T09:10:22.527Z,52.52
2023-04-19T09:13:02.601Z,51.61
2023-04-19T09:15:39.371Z,50.19
2023-04-19T09:18:10.769Z,50.49
2023-04-19T09:20:39.501Z,50.40
2023-04-19T09:23:09.175Z,49.91
2023-04-19T09:25:52.927Z,49.60
2023-04-19T09:28:25.487Z,50.05
2023-04-19T09:33:36.245Z,50.51
2023-04-19T09:36:04.521Z,49.01
2023-04-19T09:38:32.455Z,49.70
2023-04-19T09:41:08.410Z,49.23
2023-04-19T09:44:01.548Z,49.84
2023-04-19T09:46:36.185Z,48.63
2023-04-19T09:49:33.775Z,48.39
2023-04-19T09:52:11.209Z,48.74
2023-04-19T09:54:40.156Z,48.62
2023-04-19T09:57:09.278Z,48.61
2023-04-19T09:59:37.182Z,48.64
2023-04-19T10:02:07.211Z,49.14
2023-04-19T10:04:54.384Z,48.91
2023-04-19T10:07:30.835Z,48.18
2023-04-19T10:10:11.880Z,48.22
2023-04-19T10:15:22.324Z,48.20
2023-04-19T10:17:50.624Z,47.87
2023-04-19T10:20:23.996Z,48.39
2023-04-19T10:22:52.601Z,47.69
2023-04-19T10:25:29.855Z,47.39
2023-04-19T10:27:58.951Z,47.71
2023-04-19T10:30:28.132Z,47.34
2023-04-19T10:32:57.594Z,47.43
2023-04-19T10:35:29.673Z,47.29
2023-04-19T10:38:06.951Z,46.57
2023-04-19T10:41:01.563Z,47.01
2023-04-19T10:43:31.028Z,46.27
2023-04-19T10:46:02.162Z,45.97
2023-04-19T10:48:39.111Z,45.98
2023-04-19T10:51:15.459Z,45.54
2023-04-19T10:53:52.190Z,45.40
2023-04-19T10:56:21.477Z,45.31
2023-04-19T10:59:15.720Z,44.39
2023-04-19T11:01:45.141Z,45.00
2023-04-19T11:04:14.498Z,44.17
2023-04-19T11:09:38.883Z,45.24
2023-04-19T11:12:08.822Z,44.52
2023-04-19T11:14:38.108Z,44.91
2023-04-19T11:17:16.021Z,45.01
2023-04-19T11:19:45.685Z,44.74
2023-04-19T11:22:13.599Z,44.93
2023-04-19T11:24:48.132Z,45.64
2023-04-19T11:27:16.383Z,45.70
2023-04-19T11:29:44.348Z,45.99
2023-04-19T11:32:12.277Z,45.86
2023-04-19T11:34:41.441Z,45.24
2023-04-19T11:37:10.836Z,45.92
2023-04-19T11:39:48.265Z,46.09
2023-04-19T11:42:20.482Z,45.91
2023-04-19T11:44:52.954Z,45.45
2023-04-19T11:47:21.136Z,44.92
2023-04-19T11:49:49.054Z,45.08
2023-04-19T11:52:23.545Z,45.40
2023-04-19T11:54:53.562Z,46.38
2023-04-19T11:57:31.631Z,46.29
2023-04-19T12:00:11.978Z,44.82
2023-04-19T12:02:45.243Z,46.12
2023-04-19T12:05:15.242Z,46.12
2023-04-19T12:08:00.866Z,45.85
2023-04-19T12:10:30.865Z,46.08
2023-04-19T12:12:58.949Z,45.80
2023-04-19T12:15:42.375Z,44.54
2023-04-19T12:18:10.398Z,44.85
2023-04-19T12:20:39.973Z,45.71
2023-04-19T12:23:11.141Z,46.12
2023-04-19T12:25:41.304Z,46.09
2023-04-19T12:28:09.475Z,45.99
2023-04-19T12:30:37.954Z,46.33
2023-04-19T12:33:07.451Z,45.70
2023-04-19T12:35:35.987Z,45.15
2023-04-19T12:38:03.904Z,45.48
2023-04-19T12:40:32.140Z,45.47
2023-04-19T12:43:01.498Z,46.58
2023-04-19T12:45:29.454Z,47.61
2023-04-19T12:47:57.374Z,49.00
2023-04-19T12:50:25.367Z,47.76
2023-04-19T12:52:53.800Z,47.01
2023-04-19T12:55:21.902Z,46.87
2023-04-19T12:57:50.033Z,46.58
2023-04-19T13:00:19.558Z,47.49
2023-04-19T13:02:48.303Z,47.23
2023-04-19T13:05:16.443Z,46.71
2023-04-19T13:07:44.365Z,47.19
2023-04-19T13:10:12.471Z,47.17
2023-04-19T13:12:40.770Z,47.47
2023-04-19T13:15:10.187Z,46.60
2023-04-19T13:17:39.593Z,47.23
2023-04-19T13:20:09.431Z,46.74
2023-04-19T13:22:37.682Z,47.63
2023-04-19T13:25:06.161Z,48.18
2023-04-19T13:27:34.093Z,48.20
2023-04-19T13:30:01.994Z,48.35
2023-04-19T13:32:30.261Z,47.72
2023-04-19T13:34:59.545Z,47.95
2023-04-19T13:37:27.533Z,48.20
2023-04-19T13:40:07.097Z,48.88
2023-04-19T13:42:43.148Z,49.50
2023-04-19T13:45:11.833Z,49.87
2023-04-19T13:47:39.759Z,48.74
2023-04-19T13:50:10.053Z,49.47
2023-04-19T13:52:38.023Z,50.25
2023-04-19T13:55:06.553Z,49.70
2023-04-19T13:57:35.009Z,49.54
2023-04-19T14:00:03.022Z,48.98
2023-04-19T14:02:35.772Z,49.36
2023-04-19T14:05:04.653Z,49.61
2023-04-19T14:07:34.016Z,48.89
2023-04-19T14:10:02.030Z,49.21
2023-04-19T14:12:29.938Z,49.05
2023-04-19T14:14:57.898Z,49.59
2023-04-19T14:17:26.120Z,49.82
2023-04-19T14:19:53.991Z,49.47
2023-04-19T14:22:21.809Z,50.27
2023-04-19T14:24:51.195Z,50.94
2023-04-19T14:27:19.415Z,51.60
2023-04-19T14:29:47.442Z,52.19
2023-04-19T14:34:46.460Z,52.24
2023-04-19T14:37:14.342Z,52.20
2023-04-19T14:39:42.255Z,52.07
2023-04-19T14:42:11.429Z,52.41
2023-04-19T14:44:39.271Z,52.69
2023-04-19T14:47:07.471Z,52.87
2023-04-19T14:49:35.558Z,52.44
2023-04-19T14:52:04.850Z,52.77
2023-04-19T14:54:32.759Z,53.09
2023-04-19T14:57:01.388Z,52.76
2023-04-19T14:59:31.051Z,53.57
2023-04-19T15:01:59.109Z,54.02
2023-04-19T15:04:27.150Z,53.98
2023-04-19T15:06:55.086Z,54.46
2023-04-19T15:09:23.025Z,54.31
2023-04-19T15:11:50.936Z,54.28
2023-04-19T15:14:19.822Z,54.71
2023-04-19T15:16:49.082Z,55.03
2023-04-19T15:19:17.157Z,54.84
2023-04-19T15:21:45.295Z,55.41
2023-04-19T15:24:13.244Z,55.06
2023-04-19T15:26:43.568Z,54.65
2023-04-19T15:29:12.310Z,54.77
2023-04-19T15:31:40.617Z,55.15
2023-04-19T15:34:09.924Z,55.34
2023-04-19T15:36:37.816Z,55.93
2023-04-19T15:39:05.702Z,55.10
2023-04-19T15:41:33.629Z,55.29
2023-04-19T15:44:01.560Z,55.40
2023-04-19T15:46:29.609Z,55.58
2023-04-19T15:48:57.467Z,55.79
2023-04-19T15:51:27.480Z,55.67
2023-04-19T15:53:55.349Z,55.73
2023-04-19T15:56:23.128Z,56.40
2023-04-19T15:58:50.968Z,56.70
2023-04-19T16:01:19.355Z,56.70
2023-04-19T16:03:47.724Z,56.63
2023-04-19T16:06:15.745Z,57.07
2023-04-19T16:08:45.037Z,57.41
2023-04-19T16:11:12.981Z,57.54
2023-04-19T16:13:40.778Z,57.19
2023-04-19T16:16:09.044Z,57.21
2023-04-19T16:18:36.970Z,57.04
2023-04-19T16:21:05.320Z,58.16
2023-04-19T16:23:33.214Z,58.33
2023-04-19T16:26:02.513Z,58.16
2023-04-19T16:28:30.610Z,57.92
2023-04-19T16:30:58.574Z,58.71
2023-04-19T16:33:26.440Z,59.19
2023-04-19T16:35:54.514Z,58.57
2023-04-19T16:38:22.372Z,59.38
2023-04-19T16:40:50.471Z,58.84
2023-04-19T16:43:20.802Z,58.53
2023-04-19T16:45:48.889Z,59.15
2023-04-19T16:48:16.932Z,58.98
2023-04-19T16:50:44.915Z,59.95
2023-04-19T16:53:12.875Z,59.98
2023-04-19T16:55:40.747Z,59.64
2023-04-19T16:58:08.630Z,59.25
2023-04-19T17:00:37.931Z,59.78
2023-04-19T17:03:05.936Z,59.54
2023-04-19T17:05:34.980Z,59.16
2023-04-19T17:08:02.829Z,59.70
2023-04-19T17:10:30.806Z,59.63
2023-04-19T17:12:58.940Z,59.42
2023-04-19T17:15:27.094Z,59.71
2023-04-19T17:17:56.950Z,59.23
2023-04-19T17:20:24.931Z,59.50
2023-04-19T17:22:52.776Z,58.75
2023-04-19T17:25:22.326Z,59.95
2023-04-19T17:27:50.807Z,59.54
2023-04-19T17:30:18.854Z,60.03
2023-04-19T17:32:46.942Z,60.51
2023-04-19T17:35:16.440Z,59.83
2023-04-19T17:37:44.541Z,59.75
2023-04-19T17:40:13.159Z,59.93
2023-04-19T17:42:41.039Z,59.84
2023-04-19T17:45:11.127Z,59.28
2023-04-19T17:47:39.442Z,59.47
2023-04-19T17:50:09.527Z,59.55
2023-04-19T17:52:39.588Z,59.20
2023-04-19T17:55:08.159Z,59.36
2023-04-19T17:57:36.195Z,59.66
2023-04-19T18:00:06.426Z,60.42
2023-04-19T18:02:37.281Z,59.79
2023-04-19T18:05:06.177Z,60.57
2023-04-19T18:07:34.195Z,59.98
2023-04-19T18:10:04.241Z,60.98
2023-04-19T18:12:32.172Z,60.78
2023-04-19T18:15:00.189Z,61.69
2023-04-19T18:17:28.239Z,60.94
2023-04-19T18:19:56.044Z,60.82
2023-04-19T18:22:24.087Z,61.24
2023-04-19T18:24:53.386Z,61.03
2023-04-19T18:27:22.673Z,61.40
2023-04-19T18:29:52.258Z,60.25
2023-04-19T18:32:21.858Z,60.48
2023-04-19T18:34:49.963Z,60.35
2023-04-19T18:37:18.316Z,61.09
2023-04-19T18:39:46.637Z,60.55
2023-04-19T18:42:14.493Z,60.40
2023-04-19T18:44:53.739Z,60.06
2023-04-19T18:47:22.511Z,59.78
2023-04-19T18:50:03.463Z,59.84
2023-04-19T18:52:32.901Z,59.61
2023-04-19T18:55:01.363Z,59.38
2023-04-19T18:57:34.199Z,59.20
2023-04-19T19:00:06.708Z,58.87
2023-04-19T19:02:36.966Z,58.81
2023-04-19T19:05:08.139Z,58.36
2023-04-19T19:07:38.077Z,59.03
2023-04-19T19:12:40.815Z,58.45
2023-04-19T19:15:11.020Z,59.35
2023-04-19T19:17:39.037Z,59.78
2023-04-19T19:20:09.213Z,59.26
2023-04-19T19:22:37.240Z,59.64
2023-04-19T19:25:05.642Z,60.15
2023-04-19T19:27:33.573Z,60.91
2023-04-19T19:30:03.443Z,60.83
2023-04-19T19:32:32.931Z,60.30
2023-04-19T19:35:05.334Z,60.49
2023-04-19T19:37:36.090Z,60.22
2023-04-19T19:40:06.459Z,60.63
2023-04-19T19:42:34.839Z,60.21
2023-04-19T19:45:04.028Z,60.50
2023-04-19T19:47:35.548Z,60.02
2023-04-19T19:50:42.027Z,60.13
2023-04-19T19:52:52.442Z,60.11
2023-04-19T19:55:20.333Z,60.12
2023-04-19T19:58:20.998Z,59.31
2023-04-19T20:01:04.743Z,59.90
2023-04-19T20:03:37.844Z,59.72
2023-04-19T20:08:42.518Z,59.83
2023-04-19T20:11:11.973Z,58.98
2023-04-19T20:13:39.852Z,59.08
2023-04-19T20:16:09.990Z,59.31
2023-04-19T20:18:39.655Z,59.31
2023-04-19T20:21:07.657Z,59.86
2023-04-19T20:23:38.692Z,59.24
2023-04-19T20:26:06.581Z,59.54
2023-04-19T20:28:35.006Z,60.00
2023-04-19T20:31:02.972Z,60.06
2023-04-19T20:33:31.002Z,59.91
2023-04-19T20:36:01.796Z,60.54
2023-04-19T20:38:29.785Z,59.95
2023-04-19T20:40:57.704Z,60.04
2023-04-19T20:43:26.032Z,60.90
2023-04-19T20:45:53.909Z,61.50
2023-04-19T20:48:22.106Z,61.30
2023-04-19T20:50:49.920Z,60.95
2023-04-19T20:53:19.102Z,62.15
2023-04-19T20:55:47.089Z,61.92
2023-04-19T20:58:14.907Z,61.69
2023-04-19T21:00:42.809Z,61.66
2023-04-19T21:03:11.018Z,61.51
2023-04-19T21:05:39.015Z,61.11
2023-04-19T21:08:06.914Z,61.05
2023-04-19T21:10:36.205Z,60.05
2023-04-19T21:13:04.016Z,60.98
2023-04-19T21:15:31.935Z,60.54
2023-04-19T21:17:59.979Z,60.91
2023-04-19T21:20:28.101Z,60.84
2023-04-19T21:22:56.030Z,60.89
2023-04-19T21:25:24.133Z,60.46
2023-04-19T21:27:53.294Z,61.17
2023-04-19T21:30:23.159Z,60.49
2023-04-19T21:32:51.226Z,60.80
2023-04-19T21:35:19.330Z,60.46
2023-04-19T21:37:47.188Z,60.22
2023-04-19T21:40:15.078Z,60.73
2023-04-19T21:42:43.002Z,60.16
2023-04-19T21:45:12.704Z,61.13
2023-04-19T21:47:40.593Z,61.44
2023-04-19T21:50:10.126Z,60.06
2023-04-19T21:52:38.094Z,60.51
2023-04-19T21:55:07.081Z,60.38
2023-04-19T21:57:35.072Z,60.38
2023-04-19T22:00:04.633Z,60.41
2023-04-19T22:02:36.562Z,60.25
2023-04-19T22:05:07.117Z,60.55
2023-04-19T22:07:37.381Z,60.54
2023-04-19T22:10:07.278Z,61.39
2023-04-19T22:12:36.262Z,60.66
2023-04-19T22:15:09.631Z,61.59
2023-04-19T22:17:40.489Z,61.26
2023-04-19T22:20:12.858Z,61.43
2023-04-19T22:22:40.892Z,61.69
2023-04-19T22:25:09.634Z,61.33
2023-04-19T22:27:37.568Z,61.75
2023-04-19T22:30:06.499Z,62.43
2023-04-19T22:32:34.378Z,61.27
2023-04-19T22:35:04.100Z,62.10
2023-04-19T22:37:32.190Z,61.93
2023-04-19T22:40:00.117Z,62.26
2023-04-19T22:42:28.045Z,62.24
2023-04-19T22:44:55.935Z,61.61
2023-04-19T22:47:23.900Z,62.33
2023-04-19T22:49:51.781Z,62.85
2023-04-19T22:52:21.068Z,61.49
2023-04-19T22:54:48.920Z,62.25
2023-04-19T22:57:16.981Z,62.32
2023-04-19T22:59:44.887Z,62.68
2023-04-19T23:02:12.806Z,62.27
2023-04-19T23:04:40.826Z,62.93
2023-04-19T23:07:08.709Z,63.12
2023-04-19T23:09:39.329Z,63.28
2023-04-19T23:12:08.303Z,63.21
2023-04-19T23:14:38.382Z,63.52
2023-04-19T23:17:06.424Z,63.13
2023-04-19T23:19:34.474Z,63.05
2023-04-19T23:22:02.473Z,63.76
2023-04-19T23:24:30.340Z,63.49
2023-04-19T23:26:59.750Z,63.88
2023-04-19T23:29:27.586Z,63.70
2023-04-19T23:31:55.538Z,64.05
2023-04-19T23:34:23.420Z,64.10
2023-04-19T23:36:51.429Z,63.80
2023-04-19T23:39:20.124Z,63.52
2023-04-19T23:41:48.263Z,63.37
2023-04-19T23:44:17.503Z,63.25
2023-04-19T23:46:45.492Z,63.56
2023-04-19T23:49:13.346Z,63.38
2023-04-19T23:51:41.328Z,63.08
2023-04-19T23:54:09.123Z,63.52
2023-04-19T23:56:36.987Z,64.05
2023-04-19T23:59:04.812Z,63.71
